createdAt,value
2019-02-16T00:01:22.848Z,101508.00
2019-02-16T00:03:49.819Z,101507.28
2019-02-16T00:06:16.699Z,101511.07
2019-02-16T00:08:43.595Z,101510.23
2019-02-16T00:11:10.566Z,101519.64
2019-02-16T00:13:37.484Z,101513.81
2019-02-16T00:16:04.397Z,101515.23
2019-02-16T00:18:31.407Z,101505.38
2019-02-16T00:21:03.984Z,101499.64
2019-02-16T00:23:29.636Z,101506.99
2019-02-16T00:25:56.421Z,101502.52
2019-02-16T00:28:23.393Z,101500.61
2019-02-16T00:30:50.287Z,101504.78
2019-02-16T00:33:18.268Z,101506.55
2019-02-16T00:35:45.138Z,101503.99
2019-02-16T00:38:12.135Z,101504.33
2019-02-16T00:40:39.083Z,101495.41
2019-02-16T00:43:05.944Z,101505.27
2019-02-16T00:45:32.844Z,101499.28
2019-02-16T00:47:59.702Z,101500.69
2019-02-16T00:50:26.588Z,101506.02
2019-02-16T00:52:53.624Z,101505.77
2019-02-16T00:55:20.483Z,101501.02
2019-02-16T00:57:47.473Z,101502.31
2019-02-16T01:00:14.367Z,101504.53
2019-02-16T01:02:41.227Z,101501.45
2019-02-16T01:05:08.184Z,101498.45
2019-02-16T01:07:35.154Z,101504.95
2019-02-16T01:10:01.889Z,101504.28
2019-02-16T01:12:28.854Z,101502.38
2019-02-16T01:14:55.817Z,101506.73
2019-02-16T01:17:22.704Z,101503.38
2019-02-16T01:19:49.678Z,101504.03
2019-02-16T01:22:16.461Z,101498.37
2019-02-16T01:24:43.309Z,101501.80
2019-02-16T01:27:10.279Z,101501.44
2019-02-16T01:29:37.225Z,101503.58
2019-02-16T01:32:04.065Z,101502.72
2019-02-16T01:34:31.020Z,101496.92
2019-02-16T01:36:57.792Z,101501.28
2019-02-16T01:39:24.778Z,101498.28
2019-02-16T01:41:51.621Z,101506.85
2019-02-16T01:44:18.381Z,101500.52
2019-02-16T01:46:45.253Z,101499.80
2019-02-16T01:49:12.222Z,101505.75
2019-02-16T01:51:38.995Z,101503.52
2019-02-16T01:54:05.871Z,101500.39
2019-02-16T01:56:32.839Z,101503.98
2019-02-16T01:58:59.758Z,101500.99
2019-02-16T02:01:26.653Z,101501.94
2019-02-16T02:03:53.499Z,101493.07
2019-02-16T02:06:20.370Z,101499.03
2019-02-16T02:08:47.337Z,101494.53
2019-02-16T02:11:16.123Z,101496.24
2019-02-16T02:13:42.998Z,101494.61
2019-02-16T02:16:09.775Z,101497.72
2019-02-16T02:18:36.644Z,101500.40
2019-02-16T02:21:03.526Z,101501.50
2019-02-16T02:23:30.346Z,101505.12
2019-02-16T02:25:57.302Z,101506.43
2019-02-16T02:28:24.172Z,101503.98
2019-02-16T02:30:51.021Z,101507.95
2019-02-16T02:33:17.841Z,101504.66
2019-02-16T02:35:44.756Z,101508.11
2019-02-16T02:38:11.707Z,101502.05
2019-02-16T02:40:38.677Z,101505.01
2019-02-16T02:43:05.569Z,101498.13
2019-02-16T02:45:32.534Z,101496.15
2019-02-16T02:47:59.410Z,101493.96
2019-02-16T02:50:26.385Z,101493.91
2019-02-16T02:52:53.244Z,101496.88
2019-02-16T02:55:21.300Z,101496.09
2019-02-16T02:57:48.181Z,101500.26
2019-02-16T03:00:15.133Z,101493.91
2019-02-16T03:02:42.175Z,101495.19
2019-02-16T03:05:09.330Z,101496.98
2019-02-16T03:07:36.219Z,101491.08
2019-02-16T03:10:03.560Z,101491.95
2019-02-16T03:12:30.631Z,101490.70
2019-02-16T03:14:57.591Z,101487.31
2019-02-16T03:17:24.438Z,101485.98
2019-02-16T03:19:51.436Z,101480.42
2019-02-16T03:22:18.191Z,101475.67
2019-02-16T03:24:45.162Z,101469.41
2019-02-16T03:28:18.110Z,101473.00
2019-02-16T03:31:13.627Z,101476.01
2019-02-16T03:33:51.443Z,101479.00
2019-02-16T03:36:54.163Z,101478.99
2019-02-16T03:39:31.734Z,101486.72
2019-02-16T03:41:58.466Z,101486.77
2019-02-16T03:44:25.222Z,101491.03
2019-02-16T03:46:52.385Z,101488.07
2019-02-16T03:49:19.123Z,101482.55
2019-02-16T03:51:45.967Z,101485.10
2019-02-16T03:54:12.758Z,101486.86
2019-02-16T03:56:39.603Z,101481.73
2019-02-16T03:59:06.483Z,101486.08
2019-02-16T04:01:33.387Z,101486.48
2019-02-16T04:04:00.251Z,101496.72
2019-02-16T04:06:27.227Z,101499.28
2019-02-16T04:08:54.217Z,101503.97
2019-02-16T04:11:20.958Z,101505.27
2019-02-16T04:13:47.711Z,101512.91
2019-02-16T04:16:14.673Z,101510.36
2019-02-16T04:18:41.399Z,101522.28
2019-02-16T04:21:08.140Z,101523.16
2019-02-16T04:23:35.039Z,101523.19
2019-02-16T04:26:06.403Z,101520.61
2019-02-16T04:28:33.152Z,101521.04
2019-02-16T04:31:00.065Z,101516.79
2019-02-16T04:33:26.794Z,101518.50
2019-02-16T04:35:53.533Z,101515.08
2019-02-16T04:38:25.228Z,101517.31
2019-02-16T04:40:52.167Z,101516.39
2019-02-16T04:43:19.438Z,101516.78
2019-02-16T04:45:47.551Z,101501.48
2019-02-16T04:48:14.399Z,101490.92
2019-02-16T04:50:41.162Z,101491.37
2019-02-16T04:53:07.929Z,101484.16
2019-02-16T04:55:34.775Z,101489.28
2019-02-16T04:58:01.529Z,101500.77
2019-02-16T05:00:28.522Z,101498.65
2019-02-16T05:02:55.366Z,101512.67
2019-02-16T05:05:22.112Z,101511.41
2019-02-16T05:07:49.180Z,101510.57
2019-02-16T05:10:16.140Z,101503.73
2019-02-16T05:12:42.998Z,101500.80
2019-02-16T05:15:09.756Z,101502.91
2019-02-16T05:17:36.661Z,101495.20
2019-02-16T05:20:03.673Z,101497.72
2019-02-16T05:22:31.539Z,101498.16
2019-02-16T05:24:58.297Z,101489.25
2019-02-16T05:27:25.168Z,101494.73
2019-02-16T05:29:52.183Z,101496.84
2019-02-16T05:32:18.973Z,101491.73
2019-02-16T05:34:45.687Z,101496.84
2019-02-16T05:37:12.446Z,101493.08
2019-02-16T05:39:39.186Z,101495.63
2019-02-16T05:42:06.305Z,101500.77
2019-02-16T05:44:33.285Z,101498.64
2019-02-16T05:47:00.283Z,101494.83
2019-02-16T05:49:27.048Z,101488.42
2019-02-16T05:51:54.031Z,101497.80
2019-02-16T05:54:20.767Z,101502.05
2019-02-16T05:56:47.522Z,101494.37
2019-02-16T05:59:14.407Z,101491.83
2019-02-16T06:01:41.145Z,101486.75
2019-02-16T06:04:07.994Z,101482.48
2019-02-16T06:06:34.756Z,101485.02
2019-02-16T06:09:01.595Z,101488.87
2019-02-16T06:11:33.507Z,101488.45
2019-02-16T06:14:00.404Z,101490.55
2019-02-16T06:16:27.369Z,101490.53
2019-02-16T06:18:54.263Z,101497.36
2019-02-16T06:21:21.077Z,101494.81
2019-02-16T06:23:48.116Z,101495.64
2019-02-16T06:26:15.076Z,101499.91
2019-02-16T06:28:41.863Z,101499.51
2019-02-16T06:31:08.614Z,101505.45
2019-02-16T06:33:35.455Z,101514.84
2019-02-16T06:36:07.437Z,101512.70
2019-02-16T06:38:34.373Z,101522.92
2019-02-16T06:41:01.181Z,101528.02
2019-02-16T06:43:28.082Z,101529.30
2019-02-16T06:45:54.894Z,101537.36
2019-02-16T06:48:21.817Z,101544.19
2019-02-16T06:50:48.622Z,101548.87
2019-02-16T06:53:15.364Z,101548.47
2019-02-16T06:55:55.467Z,101546.30
2019-02-16T06:58:22.470Z,101548.42
2019-02-16T07:00:49.209Z,101552.27
2019-02-16T07:03:16.130Z,101551.80
2019-02-16T07:05:42.881Z,101544.55
2019-02-16T07:08:09.737Z,101544.98
2019-02-16T07:10:36.961Z,101544.95
2019-02-16T07:13:03.935Z,101541.46
2019-02-16T07:15:30.798Z,101545.77
2019-02-16T07:18:20.209Z,101540.75
2019-02-16T07:20:47.100Z,101537.72
2019-02-16T07:23:22.243Z,101538.98
2019-02-16T07:25:42.826Z,101537.36
2019-02-16T07:28:13.597Z,101533.89
2019-02-16T07:30:40.455Z,101532.89
2019-02-16T07:33:07.536Z,101528.41
2019-02-16T07:35:34.501Z,101537.04
2019-02-16T07:38:01.373Z,101548.45
2019-02-16T07:40:28.404Z,101549.52
2019-02-16T07:42:56.935Z,101549.59
2019-02-16T07:46:03.191Z,101553.72
2019-02-16T07:48:44.977Z,101554.50
2019-02-16T07:51:17.731Z,101559.96
2019-02-16T07:54:02.939Z,101564.42
2019-02-16T07:56:37.647Z,101566.33
2019-02-16T07:59:25.154Z,101566.66
2019-02-16T08:02:16.250Z,101561.56
2019-02-16T08:04:59.487Z,101564.70
2019-02-16T08:07:50.361Z,101563.64
2019-02-16T08:10:39.472Z,101564.72
2019-02-16T08:13:20.694Z,101563.42
2019-02-16T08:15:53.102Z,101567.31
2019-02-16T08:18:38.085Z,101565.92
2019-02-16T08:21:17.770Z,101556.24
2019-02-16T08:24:10.390Z,101558.70
2019-02-16T08:27:08.786Z,101565.21
2019-02-16T08:30:15.994Z,101559.23
2019-02-16T08:33:00.929Z,101560.52
2019-02-16T08:35:38.934Z,101560.62
2019-02-16T08:38:11.949Z,101557.19
2019-02-16T08:40:57.018Z,101551.89
2019-02-16T08:43:35.133Z,101556.95
2019-02-16T08:46:19.365Z,101546.63
2019-02-16T08:49:05.784Z,101547.63
2019-02-16T08:51:51.029Z,101547.19
2019-02-16T08:54:35.900Z,101540.78
2019-02-16T08:57:12.453Z,101539.05
2019-02-16T08:59:57.783Z,101543.47
2019-02-16T09:02:50.422Z,101539.31
2019-02-16T09:05:39.537Z,101545.35
2019-02-16T09:08:20.557Z,101544.67
2019-02-16T09:10:56.543Z,101548.07
2019-02-16T09:13:55.187Z,101552.42
2019-02-16T09:16:40.487Z,101544.77
2019-02-16T09:19:15.953Z,101541.62
2019-02-16T09:22:14.670Z,101540.94
2019-02-16T09:24:47.630Z,101532.78
2019-02-16T09:27:34.023Z,101529.69
2019-02-16T09:30:19.150Z,101514.83
2019-02-16T09:33:06.656Z,101521.77
2019-02-16T09:35:52.242Z,101521.34
2019-02-16T09:38:56.784Z,101525.97
2019-02-16T09:41:45.395Z,101519.73
2019-02-16T09:44:27.357Z,101521.66
2019-02-16T09:47:19.562Z,101522.77
2019-02-16T09:50:08.920Z,101515.76
2019-02-16T09:52:54.301Z,101517.83
2019-02-16T09:55:29.418Z,101516.12
2019-02-16T09:58:26.422Z,101509.59
2019-02-16T10:01:15.723Z,101506.83
2019-02-16T10:03:49.687Z,101507.98
2019-02-16T10:06:39.988Z,101514.43
2019-02-16T10:09:25.957Z,101516.34
2019-02-16T10:12:30.689Z,101522.30
2019-02-16T10:15:22.988Z,101518.36
2019-02-16T10:18:12.279Z,101517.23
2019-02-16T10:20:53.889Z,101517.83
2019-02-16T10:23:43.774Z,101518.80
2019-02-16T10:26:39.335Z,101514.77
2019-02-16T10:29:28.732Z,101523.14
2019-02-16T10:32:10.678Z,101524.13
2019-02-16T10:34:52.084Z,101513.39
2019-02-16T10:37:37.602Z,101519.22
2019-02-16T10:40:29.744Z,101520.51
2019-02-16T10:43:11.538Z,101507.30
2019-02-16T10:45:48.148Z,101511.34
2019-02-16T10:48:23.330Z,101507.53
2019-02-16T10:50:56.283Z,101510.22
2019-02-16T10:53:45.459Z,101499.71
2019-02-16T10:56:40.263Z,101495.81
2019-02-16T10:59:35.893Z,101494.19
2019-02-16T11:02:31.608Z,101489.83
2019-02-16T11:05:21.242Z,101486.36
2019-02-16T11:07:54.502Z,101488.77
2019-02-16T11:10:26.742Z,101484.51
2019-02-16T11:13:09.399Z,101475.46
2019-02-16T11:15:52.702Z,101470.47
2019-02-16T11:18:48.114Z,101467.05
2019-02-16T11:21:28.584Z,101469.35
2019-02-16T11:24:15.267Z,101461.73
2019-02-16T11:27:00.872Z,101461.58
2019-02-16T11:29:43.921Z,101460.57
2019-02-16T11:32:24.208Z,101454.22
2019-02-16T11:35:04.180Z,101448.92
2019-02-16T11:37:49.330Z,101447.64
2019-02-16T11:40:32.101Z,101449.15
2019-02-16T11:43:14.212Z,101447.63
2019-02-16T11:45:54.427Z,101446.34
2019-02-16T11:48:43.890Z,101444.47
2019-02-16T11:51:20.063Z,101441.32
2019-02-16T11:54:06.543Z,101436.34
2019-02-16T11:56:45.636Z,101435.30
2019-02-16T11:59:22.431Z,101432.30
2019-02-16T12:02:11.831Z,101436.39
2019-02-16T12:04:49.508Z,101427.78
2019-02-16T12:07:34.112Z,101424.80
2019-02-16T12:10:18.034Z,101418.48
2019-02-16T12:13:10.688Z,101420.18
2019-02-16T12:15:57.076Z,101408.95
2019-02-16T12:18:34.620Z,101398.23
2019-02-16T12:21:13.161Z,101397.60
2019-02-16T12:23:50.746Z,101391.95
2019-02-16T12:26:35.705Z,101390.45
2019-02-16T12:29:13.083Z,101386.06
2019-02-16T12:32:11.846Z,101384.65
2019-02-16T12:35:09.584Z,101377.55
2019-02-16T12:38:01.954Z,101386.30
2019-02-16T12:40:34.993Z,101381.88
2019-02-16T12:43:20.189Z,101381.31
2019-02-16T12:46:09.320Z,101372.80
2019-02-16T12:48:54.454Z,101373.91
2019-02-16T12:51:33.690Z,101362.58
2019-02-16T12:54:32.257Z,101361.31
2019-02-16T12:57:04.336Z,101357.30
2019-02-16T13:00:01.331Z,101357.12
2019-02-16T13:02:38.560Z,101349.78
2019-02-16T13:05:43.395Z,101347.25
2019-02-16T13:08:26.465Z,101345.03
2019-02-16T13:11:15.375Z,101341.59
2019-02-16T13:13:50.972Z,101336.61
2019-02-16T13:16:28.436Z,101330.56
2019-02-16T13:19:19.125Z,101330.37
2019-02-16T13:22:08.665Z,101327.74
2019-02-16T13:24:58.078Z,101324.20
2019-02-16T13:27:42.947Z,101317.33
2019-02-16T13:30:16.889Z,101314.09
2019-02-16T13:32:55.282Z,101306.27
2019-02-16T13:35:27.364Z,101306.97
2019-02-16T13:38:12.647Z,101305.91
2019-02-16T13:40:51.589Z,101306.27
2019-02-16T13:43:40.717Z,101313.36
2019-02-16T13:46:30.610Z,101306.81
2019-02-16T13:49:13.231Z,101307.50
2019-02-16T13:51:54.947Z,101308.84
2019-02-16T13:54:56.374Z,101305.47
2019-02-16T13:57:42.745Z,101299.98
2019-02-16T14:00:35.281Z,101303.77
2019-02-16T14:03:24.604Z,101314.36
2019-02-16T14:06:02.964Z,101306.84
2019-02-16T14:08:49.403Z,101305.59
2019-02-16T14:11:35.507Z,101302.89
2019-02-16T14:14:20.425Z,101306.96
2019-02-16T14:16:55.155Z,101293.74
2019-02-16T14:19:22.160Z,101300.17
2019-02-16T14:21:50.253Z,101296.09
2019-02-16T14:24:37.923Z,101298.45
2019-02-16T14:27:04.767Z,101293.93
2019-02-16T14:29:40.932Z,101285.79
2019-02-16T14:32:18.213Z,101284.28
2019-02-16T14:34:45.270Z,101285.56
2019-02-16T14:37:26.068Z,101284.56
2019-02-16T14:39:53.334Z,101281.70
2019-02-16T14:42:20.199Z,101280.57
2019-02-16T14:44:49.283Z,101269.27
2019-02-16T14:47:15.957Z,101271.86
2019-02-16T14:49:42.700Z,101273.59
2019-02-16T14:52:11.460Z,101265.21
2019-02-16T14:54:38.581Z,101267.92
2019-02-16T14:57:05.364Z,101271.16
2019-02-16T14:59:32.240Z,101269.36
2019-02-16T15:02:01.299Z,101270.41
2019-02-16T15:04:28.340Z,101267.28
2019-02-16T15:06:55.357Z,101258.95
2019-02-16T15:09:26.784Z,101264.47
2019-02-16T15:11:54.648Z,101257.13
2019-02-16T15:14:21.972Z,101258.34
2019-02-16T15:16:49.016Z,101255.41
2019-02-16T15:19:15.770Z,101262.52
2019-02-16T15:21:42.746Z,101252.53
2019-02-16T15:24:09.730Z,101256.14
2019-02-16T15:26:46.829Z,101247.63
2019-02-16T15:29:45.109Z,101254.22
2019-02-16T15:32:14.276Z,101257.90
2019-02-16T15:34:41.161Z,101255.52
2019-02-16T15:37:08.082Z,101258.88
2019-02-16T15:39:35.048Z,101260.44
2019-02-16T15:42:03.016Z,101260.89
2019-02-16T15:44:29.975Z,101260.73
2019-02-16T15:46:56.836Z,101259.23
2019-02-16T15:49:23.987Z,101256.52
2019-02-16T15:51:50.992Z,101261.55
2019-02-16T15:54:18.722Z,101258.13
2019-02-16T15:56:45.847Z,101259.81
2019-02-16T15:59:14.970Z,101255.52
2019-02-16T16:01:42.735Z,101260.85
2019-02-16T16:04:09.444Z,101260.03
2019-02-16T16:06:36.357Z,101249.83
2019-02-16T16:09:18.106Z,101256.06
2019-02-16T16:12:04.746Z,101247.02
2019-02-16T16:14:44.150Z,101243.33
2019-02-16T16:17:28.473Z,101250.64
2019-02-16T16:20:01.107Z,101249.96
2019-02-16T16:22:37.827Z,101247.04
2019-02-16T16:25:27.144Z,101249.92
2019-02-16T16:28:15.415Z,101252.23
2019-02-16T16:31:11.582Z,101252.94
2019-02-16T16:34:16.373Z,101261.30
2019-02-16T16:36:50.375Z,101259.56
2019-02-16T16:39:34.725Z,101253.56
2019-02-16T16:42:25.250Z,101249.95
2019-02-16T16:45:30.566Z,101254.55
2019-02-16T16:48:16.424Z,101249.90
2019-02-16T16:51:14.945Z,101249.91
2019-02-16T16:53:56.906Z,101247.83
2019-02-16T16:56:31.665Z,101246.75
2019-02-16T16:59:28.460Z,101248.09
2019-02-16T17:02:10.486Z,101248.75
2019-02-16T17:04:57.046Z,101255.61
2019-02-16T17:07:44.700Z,101258.96
2019-02-16T17:10:21.103Z,101259.30
2019-02-16T17:13:03.145Z,101262.16
2019-02-16T17:15:52.892Z,101257.17
2019-02-16T17:18:39.424Z,101269.25
2019-02-16T17:21:28.207Z,101275.10
2019-02-16T17:24:13.177Z,101261.89
2019-02-16T17:26:58.261Z,101270.52
2019-02-16T17:29:52.878Z,101270.23
2019-02-16T17:32:54.389Z,101280.64
2019-02-16T17:35:58.586Z,101284.80
2019-02-16T17:38:45.054Z,101284.41
2019-02-16T17:41:22.727Z,101290.20
2019-02-16T17:43:58.357Z,101284.60
2019-02-16T17:46:40.949Z,101283.12
2019-02-16T17:49:42.736Z,101285.04
2019-02-16T17:52:51.469Z,101276.91
2019-02-16T17:55:28.081Z,101285.63
2019-02-16T17:58:05.171Z,101287.41
2019-02-16T18:00:51.876Z,101288.15
2019-02-16T18:03:41.344Z,101287.23
2019-02-16T18:06:23.881Z,101287.37
2019-02-16T18:09:09.024Z,101284.37
2019-02-16T18:11:44.342Z,101283.15
2019-02-16T18:14:24.540Z,101286.38
2019-02-16T18:17:05.746Z,101281.68
2019-02-16T18:19:56.261Z,101278.96
2019-02-16T18:22:31.902Z,101270.23
2019-02-16T18:25:08.851Z,101280.78
2019-02-16T18:27:58.382Z,101275.58
2019-02-16T18:30:49.338Z,101276.80
2019-02-16T18:33:40.376Z,101272.62
2019-02-16T18:36:16.580Z,101275.85
2019-02-16T18:38:59.626Z,101269.90
2019-02-16T18:41:42.739Z,101263.20
2019-02-16T18:44:18.681Z,101263.00
2019-02-16T18:47:05.147Z,101259.12
2019-02-16T18:49:57.141Z,101260.45
2019-02-16T18:52:49.700Z,101253.66
2019-02-16T18:55:39.311Z,101248.49
2019-02-16T18:58:24.410Z,101243.97
2019-02-16T19:01:06.300Z,101254.94
2019-02-16T19:03:55.616Z,101253.41
2019-02-16T19:06:49.775Z,101267.33
2019-02-16T19:09:41.217Z,101257.66
2019-02-16T19:12:19.375Z,101262.18
2019-02-16T19:15:08.647Z,101261.43
2019-02-16T19:18:10.194Z,101257.88
2019-02-16T19:21:11.620Z,101257.71
2019-02-16T19:23:58.042Z,101255.13
2019-02-16T19:26:47.461Z,101259.30
2019-02-16T19:29:36.213Z,101255.29
2019-02-16T19:32:25.376Z,101263.00
2019-02-16T19:35:14.500Z,101265.44
2019-02-16T19:38:01.082Z,101260.36
2019-02-16T19:40:46.476Z,101258.80
2019-02-16T19:43:32.964Z,101260.01
2019-02-16T19:46:25.294Z,101258.61
2019-02-16T19:49:05.137Z,101261.73
2019-02-16T19:51:50.694Z,101262.26
2019-02-16T19:54:37.384Z,101263.34
2019-02-16T19:57:42.094Z,101260.08
2019-02-16T20:00:28.978Z,101260.00
2019-02-16T20:03:34.872Z,101255.66
2019-02-16T20:06:19.784Z,101261.55
2019-02-16T20:08:54.141Z,101255.73
2019-02-16T20:11:49.877Z,101255.18
2019-02-16T20:14:40.000Z,101253.89
2019-02-16T20:17:39.886Z,101261.27
2019-02-16T20:20:25.622Z,101256.89
2019-02-16T20:23:17.731Z,101251.83
2019-02-16T20:26:04.071Z,101253.67
2019-02-16T20:28:50.702Z,101255.25
2019-02-16T20:31:46.435Z,101253.55
2019-02-16T20:34:20.261Z,101262.89
2019-02-16T20:37:02.830Z,101252.09
2019-02-16T20:39:52.250Z,101249.26
2019-02-16T20:42:40.914Z,101256.61
2019-02-16T20:45:26.612Z,101251.17
2019-02-16T20:48:13.288Z,101252.92
2019-02-16T20:50:48.710Z,101260.34
2019-02-16T20:53:23.946Z,101251.70
2019-02-16T20:56:10.660Z,101258.73
2019-02-16T20:59:00.847Z,101254.86
2019-02-16T21:01:47.222Z,101256.75
2019-02-16T21:04:34.306Z,101262.83
2019-02-16T21:07:33.205Z,101253.38
2019-02-16T21:10:20.004Z,101252.30
2019-02-16T21:13:12.732Z,101260.57
2019-02-16T21:15:56.451Z,101257.31
2019-02-16T21:18:52.079Z,101264.09
2019-02-16T21:21:37.428Z,101260.37
2019-02-16T21:24:11.722Z,101265.51
2019-02-16T21:26:58.629Z,101265.02
2019-02-16T21:29:43.933Z,101260.00
2019-02-16T21:32:33.020Z,101257.92
2019-02-16T21:35:08.072Z,101263.13
2019-02-16T21:37:43.749Z,101267.95
2019-02-16T21:40:36.325Z,101260.92
2019-02-16T21:43:28.105Z,101270.80
2019-02-16T21:46:09.139Z,101273.09
2019-02-16T21:48:56.680Z,101272.62
2019-02-16T21:51:58.155Z,101273.72
2019-02-16T21:54:44.742Z,101267.55
2019-02-16T21:57:29.923Z,101265.47
2019-02-16T22:00:14.874Z,101268.20
2019-02-16T22:02:50.853Z,101263.30
2019-02-16T22:05:36.348Z,101260.53
2019-02-16T22:08:14.684Z,101258.40
2019-02-16T22:10:59.802Z,101261.32
2019-02-16T22:13:26.727Z,101260.28
2019-02-16T22:15:53.513Z,101252.62
2019-02-16T22:18:20.392Z,101246.25
2019-02-16T22:20:47.411Z,101252.35
2019-02-16T22:23:14.346Z,101238.77
2019-02-16T22:25:41.103Z,101244.13
2019-02-16T22:28:17.952Z,101246.74
2019-02-16T22:30:36.692Z,101239.90
2019-02-16T22:33:03.490Z,101245.83
2019-02-16T22:35:30.500Z,101243.25
2019-02-16T22:37:57.249Z,101238.94
2019-02-16T22:40:24.034Z,101243.59
2019-02-16T22:42:51.087Z,101239.90
2019-02-16T22:45:19.168Z,101243.74
2019-02-16T22:47:46.036Z,101235.08
2019-02-16T22:50:13.051Z,101235.61
2019-02-16T22:52:40.072Z,101238.92
2019-02-16T22:55:07.429Z,101242.12
2019-02-16T22:57:34.390Z,101241.13
2019-02-16T23:00:01.151Z,101247.06
2019-02-16T23:02:28.462Z,101248.57
2019-02-16T23:04:55.450Z,101248.93
2019-02-16T23:07:22.316Z,101247.27
2019-02-16T23:09:50.663Z,101248.83
2019-02-16T23:12:17.755Z,101250.30
2019-02-16T23:14:44.842Z,101250.70
2019-02-16T23:17:11.797Z,101254.81
2019-02-16T23:19:38.580Z,101245.34
2019-02-16T23:22:05.929Z,101248.11
2019-02-16T23:24:32.788Z,101248.18
2019-02-16T23:26:59.934Z,101253.80
2019-02-16T23:29:26.910Z,101252.38
2019-02-16T23:31:53.645Z,101248.38
2019-02-16T23:34:20.539Z,101247.67
2019-02-16T23:36:47.529Z,101245.14
2019-02-16T23:39:14.387Z,101244.30
2019-02-16T23:41:41.475Z,101239.14
2019-02-16T23:44:08.327Z,101236.80
2019-02-16T23:46:35.238Z,101233.75
2019-02-16T23:49:02.231Z,101226.85
2019-02-16T23:51:29.195Z,101226.65
2019-02-16T23:53:55.931Z,101224.73
2019-02-16T23:56:22.753Z,101218.80
2019-02-16T23:58:52.063Z,101230.20
